Terminal Aerodrome Forecast
Issued by NWS

Home | Current Version | Previous Version | Text Only | Print | Product List | Glossary Off
Versions: 1 2 3 4 5 6 7 8 9 10 11 12 13 14 15 16 17 18 19 20

000
FTUS45 KGGW 180500
TAFGDV
TAF
KGDV 180520Z 1806/1906 VRB06KT P6SM OVC012
     FM181200 VRB03KT P6SM OVC005
     FM190000 VRB03KT P6SM OVC015
      AMD LTD TO CLD VIS AND WIND=

USA.gov is the U.S. government's official web portal to all federal, state and local government web resources and services.